Latest Weather Observations for Toowoomba

IDQ60801

Issued at 7:22 am EST Tuesday 7 July 2020 (issued every 10 minutes, with the page automatically refreshed every 10 minutes)

About weather observations | Map of weather stations | Latest weather observations for QLD | Other Formats
Station Details ID: 041529 Name: TOOWOOMBA AIRPORT Lat: -27.54 Lon: 151.91 Height: 640.9 m
Data from the previous 72 hours. | See also: Recent months at Toowoomba
Date/Time
EST
Temp
°C
App
Temp
°C
Dew
Point
°C
Rel
Hum
%
Delta-T
°C
Wind Press
QNH
hPa
Press
MSL
hPa
Rain since
9am
mm
Dir  Spd
km/h
Gust
km/h
Spd
kts
Gust
kts
07/07:00am 6.2 2.4 3.9 85 1.0 E 13 15 7 8 1027.6 1027.2 0.0
07/06:30am 6.8 3.5 4.8 87 0.9 ESE 11 13 6 7 1027.6 1027.2 0.0
07/06:00am 5.8 2.0 3.8 87 0.9 E 13 13 7 7 1027.1 1026.7 0.0
07/05:30am 5.9 2.2 4.2 89 0.8 ESE 13 13 7 7 1026.9 1026.4 0.0
07/05:00am 6.3 2.8 5.4 94 0.4 ESE 13 13 7 7 1026.6 1026.2 0.0
07/04:30am 5.4 1.7 4.4 93 0.4 ESE 13 15 7 8 1026.4 1026.0 0.0
07/04:00am 6.7 3.7 5.8 94 0.4 ESE 11 13 6 7 1026.6 1026.2 0.0
07/03:30am 6.1 3.0 5.5 96 0.3 ESE 11 13 6 7 1026.9 1026.4 0.0
07/03:00am 6.4 3.0 5.7 95 0.3 E 13 15 7 8 1026.9 1026.4 0.0
07/02:30am 6.7 2.8 5.5 92 0.6 E 15 17 8 9 1026.9 1026.4 0.0
07/02:00am 7.5 3.8 6.3 92 0.6 E 15 17 8 9 1026.9 1026.4 0.0
07/01:30am 6.3 2.8 5.3 93 0.5 E 13 17 7 9 1027.0 1026.6 0.0
07/01:00am 6.6 3.0 4.9 89 0.8 ESE 13 15 7 8 1027.4 1027.0 0.0
07/12:30am 7.2 3.2 4.9 85 1.1 ESE 15 17 8 9 1027.7 1027.3 0.0
07/12:00am 7.7 3.6 4.3 79 1.5 ESE 15 17 8 9 1027.7 1027.3 0.0
 
Date/Time
EST
Temp
°C
App
Temp
°C
Dew
Point
°C
Rel
Hum
%
Delta-T
°C
Wind Press
QNH
hPa
Press
MSL
hPa
Rain since
9am
mm
Dir  Spd
km/h
Gust
km/h
Spd
kts
Gust
kts
06/11:30pm 8.4 3.8 3.8 73 2.1 E 17 19 9 10 1027.9 1027.5 0.0
06/11:00pm 9.9 5.5 4.5 69 2.5 E 17 20 9 11 1028.2 1027.9 0.0
06/10:30pm 8.3 3.3 3.4 71 2.2 ESE 19 20 10 11 1028.3 1028.0 0.0
06/10:00pm 9.4 4.8 3.8 68 2.5 E 17 20 9 11 1028.2 1027.9 0.0
06/09:30pm 7.6 3.7 3.3 74 1.9 ESE 13 15 7 8 1028.2 1027.9 0.0
06/09:00pm 8.9 5.5 3.9 71 2.2 ESE 11 13 6 7 1028.1 1027.7 0.0
06/08:30pm 9.5 6.1 4.1 69 2.5 E 11 13 6 7 1027.9 1027.5 0.0
06/08:00pm 9.8 6.4 4.2 68 2.6 ESE 11 13 6 7 1027.7 1027.3 0.0
06/07:30pm 9.8 6.1 4.2 68 2.6 ESE 13 13 7 7 1027.6 1027.2 0.0
06/07:00pm 10.5 6.3 4.0 64 3.0 E 15 15 8 8 1027.3 1026.9 0.0
06/06:30pm 10.8 6.6 4.0 63 3.1 ESE 15 19 8 10 1027.1 1026.7 0.0
06/06:00pm 11.9 8.2 4.2 59 3.6 E 13 17 7 9 1026.6 1026.2 0.0
06/05:30pm 12.9 8.8 4.1 55 4.1 E 15 19 8 10 1026.4 1026.0 0.0
06/05:00pm 14.2 9.6 3.9 50 4.8 E 17 20 9 11 1026.0 1025.6 0.0
06/04:30pm 15.2 10.2 3.7 46 5.5 E 19 22 10 12 1025.8 1025.4 0.0
06/04:00pm 16.1 12.2 3.5 43 6.0 E 13 17 7 9 1025.5 1025.0 0.0
06/03:30pm 16.4 12.6 3.8 43 6.0 ESE 13 19 7 10 1025.5 1025.0 0.0
06/03:00pm 16.4 13.3 3.8 43 6.0 SSE 9 15 5 8 1025.5 1025.0 0.0
06/02:30pm 16.7 13.3 4.1 43 6.1 ENE 11 17 6 9 1025.6 1025.2 0.0
06/02:00pm 16.8 13.3 3.5 41 6.3 E 11 15 6 8 1025.8 1025.4 0.0
06/01:30pm 16.5 13.3 2.9 40 6.4 SE 9 15 5 8 1025.8 1025.4 0.0
06/01:00pm 16.1 12.5 2.9 41 6.2 SSE 11 17 6 9 1026.1 1025.7 0.0
06/12:30pm 15.5 12.2 2.7 42 6.0 E 9 17 5 9 1026.5 1026.1 0.0
06/12:00pm 15.1 11.8 2.6 43 5.8 NE 9 17 5 9 1026.9 1026.4 0.0
06/11:30am 15.0 11.1 3.5 46 5.4 NE 13 19 7 10 1027.3 1026.9 0.0
06/11:00am 14.0 9.4 3.5 49 4.9 E 17 20 9 11 1027.6 1027.2 0.0
06/10:30am 13.8 8.6 3.3 49 4.9 ENE 20 24 11 13 1027.5 1027.1 0.0
06/10:00am 13.6 8.3 2.8 48 4.9 E 20 24 11 13 1027.5 1027.1 0.0
06/09:30am 12.9 7.6 3.0 51 4.5 E 20 24 11 13 1027.4 1027.0 0.0
06/09:00am 12.4 7.7 3.1 53 4.2 E 17 24 9 13 1027.2 1026.8 0.0
06/08:30am 11.3 6.8 4.3 62 3.3 ESE 17 20 9 11 1026.9 1026.4 0.0
06/08:00am 9.0 4.8 3.8 70 2.3 ESE 15 19 8 10 1026.3 1025.9 0.0
06/07:30am 6.1 1.4 2.9 80 1.4 ESE 17 17 9 9 1026.1 1025.7 0.0
06/07:00am 4.1 0.1 2.9 92 0.5 ESE 13 15 7 8 1025.8 1025.4 0.0
06/06:30am 2.6 -1.6 1.7 94 0.4 ESE 13 13 7 7 1025.5 1025.0 0.0
06/06:00am 4.6 3.2 3.7 94 0.4 CALM 0 0 0 0 1025.4 1024.9 0.0
06/05:30am 4.6 3.2 3.7 94 0.4 CALM 0 0 0 0 1025.0 1024.6 0.0
06/05:00am 4.4 1.9 4.0 97 0.2 SW 6 7 3 4 1024.7 1024.3 0.0
06/04:30am 4.0 2.2 3.3 95 0.3 SW 2 7 1 4 1024.5 1024.1 0.0
06/04:00am 4.4 3.0 3.5 94 0.4 CALM 0 0 0 0 1024.7 1024.3 0.0
06/03:30am 4.3 2.9 3.4 94 0.4 CALM 0 0 0 0 1024.7 1024.3 0.0
06/03:00am 4.6 3.2 3.7 94 0.4 CALM 0 0 0 0 1024.9 1024.5 0.0
06/02:30am 4.6 3.2 3.6 93 0.4 CALM 0 6 0 3 1024.8 1024.4 0.0
06/02:00am 4.5 1.7 3.3 92 0.5 W 7 9 4 5 1024.8 1024.4 0.0
06/01:30am 5.1 2.3 3.1 87 0.9 W 7 9 4 5 1025.3 1024.8 0.0
06/01:00am 5.5 2.3 3.0 84 1.1 SW 9 15 5 8 1025.0 1024.6 0.0
06/12:30am 6.3 3.2 3.6 83 1.2 SW 9 15 5 8 1025.1 1024.7 0.0
06/12:00am 6.3 2.4 3.6 83 1.2 SW 13 17 7 9 1025.3 1024.8 0.0
 
Date/Time
EST
Temp
°C
App
Temp
°C
Dew
Point
°C
Rel
Hum
%
Delta-T
°C
Wind Press
QNH
hPa
Press
MSL
hPa
Rain since
9am
mm
Dir  Spd
km/h
Gust
km/h
Spd
kts
Gust
kts
05/11:30pm 6.6 3.1 3.4 80 1.4 SSW 11 15 6 8 1025.6 1025.2 0.0
05/11:00pm 7.0 2.0 3.8 80 1.4 SW 19 24 10 13 1025.4 1024.9 0.0
05/10:30pm 6.7 2.1 3.5 80 1.4 SW 17 22 9 12 1025.5 1025.0 0.0
05/10:00pm 7.2 2.5 3.4 77 1.7 SW 17 22 9 12 1025.6 1025.2 0.0
05/09:30pm 6.9 2.6 3.0 76 1.7 SW 15 20 8 11 1025.7 1025.3 0.0
05/09:00pm 7.0 2.1 2.1 71 2.1 SW 17 20 9 11 1025.5 1025.0 0.0
05/08:30pm 7.6 2.3 1.9 67 2.4 WSW 19 24 10 13 1025.5 1025.0 0.0
05/08:00pm 8.1 2.6 1.7 64 2.7 WSW 20 24 11 13 1025.3 1024.8 0.0
05/07:30pm 8.4 3.1 2.0 64 2.8 WSW 19 22 10 12 1024.8 1024.4 0.0
05/07:00pm 9.1 4.9 1.5 59 3.2 WSW 13 15 7 8 1024.5 1024.1 0.0
05/06:30pm 9.8 5.2 1.5 56 3.6 WSW 15 20 8 11 1024.2 1023.8 0.0
05/06:00pm 10.6 5.6 1.4 53 4.0 WSW 17 20 9 11 1023.8 1023.3 0.0
05/05:30pm 11.2 7.3 1.2 50 4.3 WSW 11 15 6 8 1023.6 1023.1 0.0
05/05:00pm 12.7 8.5 1.7 47 4.9 WSW 13 19 7 10 1023.0 1022.6 0.0
05/04:30pm 13.7 9.1 1.4 43 5.5 WSW 15 20 8 11 1022.7 1022.2 0.0
05/04:00pm 14.6 9.6 1.5 41 5.9 WSW 17 22 9 12 1022.4 1021.9 0.0
05/03:30pm 14.9 9.9 1.1 39 6.2 WSW 17 22 9 12 1022.2 1021.7 0.0
05/03:00pm 14.4 9.0 1.0 40 5.9 WSW 19 24 10 13 1022.4 1021.9 0.0
05/02:30pm 14.2 9.3 1.8 43 5.6 WSW 17 24 9 13 1022.5 1022.0 0.0
05/02:00pm 14.1 8.8 2.0 44 5.5 WSW 19 24 10 13 1022.5 1022.0 0.0
05/01:30pm 13.7 8.7 1.4 43 5.5 WSW 17 22 9 12 1022.6 1022.1 0.0
05/01:00pm 13.9 8.9 1.2 42 5.6 SW 17 24 9 13 1022.7 1022.2 0.0
05/12:30pm 12.9 8.5 0.3 42 5.5 WSW 13 20 7 11 1023.2 1022.8 0.0
05/12:00pm 12.7 8.0 0.8 44 5.2 WSW 15 22 8 12 1023.9 1023.4 0.0
05/11:30am 12.2 7.1 0.6 45 5.0 WSW 17 22 9 12 1024.4 1024.0 0.0
05/11:00am 11.4 6.4 1.1 49 4.5 WSW 17 26 9 14 1024.6 1024.2 0.0
05/10:30am 9.9 5.1 0.5 52 4.0 W 15 22 8 12 1024.8 1024.4 0.0
05/10:00am 8.7 3.2 0.9 58 3.3 WSW 19 26 10 14 1024.8 1024.4 0.0
05/09:30am 7.1 2.1 1.2 66 2.5 W 17 24 9 13 1024.7 1024.3 0.0
05/09:00am 5.1 0.0 0.9 74 1.7 W 17 24 9 13 1024.6 1024.2 0.0
05/08:30am 3.6 -0.5 2.0 89 0.7 WNW 13 17 7 9 1024.4 1024.0 0.0
05/08:11am 1.5 -2.7 1.4 99 0.0 WNW 13 17 7 9 1024.2 1023.8 0.0
05/08:00am 0.7 -4.4 0.6 99 0.0 WNW 17 20 9 11 1024.1 1023.6 0.0
05/07:59am 0.7 -4.4 0.6 99 0.0 WNW 17 22 9 12 1024.1 1023.6 0.0
05/07:38am 0.0 -5.2 -0.1 99 0.0 WNW 17 22 9 12 1023.8 1023.3 0.0
05/07:32am 0.0 -5.2 -0.1 99 0.0 WNW 17 22 9 12 1023.7 1023.2 0.0
05/07:30am 0.0 -5.2 -0.1 99 0.0 WNW 17 22 9 12 1023.6 1023.1 0.0
05/07:00am 0.1 -4.7 0.0 99 0.0 W 15 19 8 10 1023.3 1022.9 0.0
05/06:30am 0.6 -4.5 0.5 99 0.0 WSW 17 20 9 11 1023.0 1022.6 0.0
05/06:00am 0.6 -3.4 0.3 98 0.1 W 11 17 6 9 1022.7 1022.2 0.0
05/05:30am 1.2 -3.3 0.0 92 0.5 WNW 13 20 7 11 1022.6 1022.1 0.0
05/05:00am 3.3 -2.4 0.4 81 1.1 SW 20 28 11 15 1022.0 1021.5 0.0
05/04:30am 3.6 -3.6 0.5 80 1.2 SW 28 37 15 20 1021.7 1021.3 0.0
05/04:00am 3.7 -3.2 0.4 79 1.3 SW 26 37 14 20 1022.0 1021.5 0.0
05/03:30am 3.8 -3.5 0.3 78 1.4 SSW 28 35 15 19 1022.3 1021.8 0.0
05/03:00am 3.9 -3.4 0.2 77 1.5 SSW 28 37 15 20 1022.5 1022.0 0.0
05/02:30am 3.7 -2.7 1.1 83 1.0 SW 24 33 13 18 1022.6 1022.1 0.0
05/02:00am 3.7 -3.0 1.4 85 0.9 SW 26 33 14 18 1022.8 1022.3 0.0
05/01:30am 3.6 -2.4 1.3 85 0.9 SW 22 28 12 15 1023.2 1022.8 0.0
05/01:00am 3.7 -2.3 1.3 84 1.0 SW 22 28 12 15 1023.7 1023.2 0.0
05/12:30am 4.1 -2.2 1.3 82 1.1 SW 24 30 13 16 1023.3 1022.9 0.0
05/12:00am 4.6 -1.3 1.5 80 1.3 SW 22 30 12 16 1023.4 1023.0 0.0
 
Date/Time
EST
Temp
°C
App
Temp
°C
Dew
Point
°C
Rel
Hum
%
Delta-T
°C
Wind Press
QNH
hPa
Press
MSL
hPa
Rain since
9am
mm
Dir  Spd
km/h
Gust
km/h
Spd
kts
Gust
kts
04/11:30pm 4.7 -1.2 1.4 79 1.4 SW 22 28 12 15 1023.8 1023.3 0.0
04/11:00pm 4.8 -0.8 1.5 79 1.4 SW 20 26 11 14 1024.2 1023.8 0.0
04/10:30pm 4.9 -1.1 1.2 77 1.5 WSW 22 26 12 14 1024.1 1023.6 0.0
04/10:00pm 5.0 -0.1 0.9 75 1.7 WSW 17 20 9 11 1024.2 1023.8 0.0
04/09:30pm 5.4 -0.1 0.8 72 1.9 WSW 19 22 10 12 1024.0 1023.5 0.0
04/09:00pm 5.6 0.4 0.2 68 2.2 WSW 17 22 9 12 1024.1 1023.6 0.0
04/08:30pm 6.3 0.7 -0.2 63 2.6 WSW 19 26 10 14 1023.9 1023.4 0.0
04/08:00pm 6.9 1.0 -0.5 59 2.9 WSW 20 28 11 15 1023.7 1023.2 0.0
04/07:30pm 7.1 2.1 -1.3 55 3.3 WSW 15 22 8 12 1023.3 1022.9 0.0
04/07:00pm 7.2 0.8 -2.0 52 3.5 WSW 22 28 12 15 1022.8 1022.3 0.0
04/06:30pm 7.7 1.6 -2.0 50 3.8 WSW 20 28 11 15 1022.4 1021.9 0.0
04/06:00pm 8.3 1.6 -1.2 51 3.8 WSW 24 32 13 17 1022.0 1021.5 0.0
04/05:30pm 9.3 1.8 -1.7 46 4.4 WSW 28 41 15 22 1021.6 1021.2 0.0
04/05:00pm 10.2 1.9 -1.8 43 4.8 WSW 32 43 17 23 1021.3 1020.8 0.0
04/04:30pm 11.1 2.0 -0.7 44 4.9 WSW 37 50 20 27 1021.0 1020.5 0.0
04/04:00pm 11.9 3.1 1.3 48 4.6 WSW 37 46 20 25 1020.5 1020.0 0.0
04/03:42pm 12.2 3.0 1.2 47 4.8 WSW 39 57 21 31 1020.6 1020.1 0.0
04/03:30pm 12.7 3.5 1.4 46 5.0 WSW 39 52 21 28 1020.6 1020.1 0.0
04/03:00pm 13.2 3.7 1.8 46 5.1 WSW 41 54 22 29 1020.4 1019.9 0.0
04/02:31pm 13.0 2.9 1.4 45 5.1 WSW 44 63 24 34 1020.1 1019.7 0.0
04/02:30pm 13.4 3.3 1.7 45 5.2 WSW 44 63 24 34 1020.3 1019.8 0.0
04/02:00pm 13.1 4.0 1.8 46 5.0 WSW 39 54 21 29 1020.4 1019.9 0.0
04/01:47pm 12.7 2.6 1.7 47 4.9 WSW 44 65 24 35 1020.6 1020.1 0.0
04/01:30pm 12.8 3.4 2.6 50 4.6 WSW 41 57 22 31 1020.6 1020.1 0.0
04/01:00pm 12.5 2.1 1.8 48 4.8 WSW 46 61 25 33 1020.7 1020.2 0.0
04/12:33pm 12.9 3.6 2.7 50 4.7 WSW 41 59 22 32 1021.2 1020.7 0.0
04/12:30pm 12.9 3.5 2.5 49 4.7 WSW 41 57 22 31 1021.2 1020.7 0.0
04/12:00pm 12.0 2.2 2.5 52 4.3 WSW 43 57 23 31 1021.7 1021.3 0.0
04/11:30am 11.5 2.2 2.8 55 3.9 WSW 41 54 22 29 1021.9 1021.4 0.0
04/11:22am 11.5 2.6 2.8 55 3.9 WSW 39 57 21 31 1022.1 1021.6 0.0
04/11:00am 11.2 2.7 3.0 57 3.7 WSW 37 52 20 28 1022.5 1022.0 0.0
04/10:30am 10.9 1.6 2.7 57 3.7 WSW 41 59 22 32 1022.9 1022.5 0.0
04/10:02am 10.2 2.3 2.3 58 3.5 WSW 33 54 18 29 1022.9 1022.5 0.0
04/10:00am 10.4 2.6 2.7 59 3.4 WSW 33 44 18 24 1022.9 1022.5 0.0
04/09:30am 9.2 1.3 2.5 63 2.9 WSW 33 48 18 26 1023.1 1022.7 0.0
04/09:23am 9.2 2.0 2.8 64 2.8 WSW 30 48 16 26 1023.1 1022.7 0.0
04/09:00am 8.7 1.8 2.5 65 2.7 WSW 28 37 15 20 1023.3 1022.9 1.4
04/08:30am 7.6 1.9 3.1 73 2.0 WSW 22 35 12 19 1023.3 1022.9 1.4
04/08:00am 6.3 0.5 2.4 76 1.7 WSW 22 30 12 16 1023.1 1022.7 1.4
04/07:30am 5.6 -0.3 1.9 77 1.6 WSW 22 28 12 15 1022.9 1022.5 1.4

Other formats

Comma delimited format used in spreadsheet applications
http://www.bom.gov.au/fwo/IDQ60801/IDQ60801.95551.axf

JavaScript Object Notation format (JSON) in row-major order
http://www.bom.gov.au/fwo/IDQ60801/IDQ60801.95551.json

Data quality

Most of these data are generated automatically and are frequently updated. Quality checks on data are not normally performed. It is possible for incorrect values to appear. Refer to information at About Latest Weather Observations and please check the disclaimer before using these data.